Time;durP1;ratioP1;P1;durP2;ratioP2;P2;SDS_P1;SDS_P2;PMS_P1;PMS_P2;Temp;Humidity;BMP_temperature;BMP_pressure;BME280_temperature;BME280_humidity;BME280_pressure;Samples;Min_cycle;Max_cycle;Signal;HPM_P1;HPM_P2
2023/03/08 00:01:41;;;;;;;0.90;0.90;;;0.20;99.90;;;;;;4963922;28;20514;-83
2023/03/08 00:04:06;;;;;;;1.13;1.13;;;-0.70;99.90;;;;;;4941518;28;20035;-83
2023/03/08 00:06:32;;;;;;;0.60;0.60;;;-1.20;99.90;;;;;;5026831;28;20046;-83
2023/03/08 00:08:59;;;;;;;;;;;-0.20;99.90;;;;;;4949060;28;20466;-82
2023/03/08 00:11:25;;;;;;;0.80;0.80;;;-0.60;99.90;;;;;;4933376;28;19922;-82
2023/03/08 00:13:51;;;;;;;0.70;0.70;;;-1.00;99.90;;;;;;4965162;28;20047;-83
2023/03/08 00:16:17;;;;;;;1.80;1.70;;;0.80;99.90;;;;;;4949344;28;20038;-82
2023/03/08 00:18:43;;;;;;;0.80;0.80;;;-0.50;99.90;;;;;;4943240;28;20136;-83
2023/03/08 00:21:14;;;;;;;0.77;0.77;;;-0.40;99.90;;;;;;4959200;28;20046;-83
2023/03/08 00:23:41;;;;;;;0.82;0.82;;;-0.40;99.90;;;;;;4979646;28;20027;-83
2023/03/08 00:26:08;;;;;;;0.63;0.63;;;-0.40;99.90;;;;;;4963417;28;20081;-84
2023/03/08 00:28:33;;;;;;;0.70;0.70;;;-0.50;99.90;;;;;;4991089;28;20113;-83
2023/03/08 00:31:05;;;;;;;0.80;0.80;;;-0.60;99.90;;;;;;4945963;28;20122;-83
2023/03/08 00:33:31;;;;;;;0.80;0.80;;;-0.60;99.90;;;;;;4968101;28;20043;-83
2023/03/08 00:36:01;;;;;;;0.60;0.60;;;-0.70;99.90;;;;;;4986577;28;20039;-83
2023/03/08 00:38:29;;;;;;;0.65;0.65;;;-0.80;99.90;;;;;;4963448;28;20038;-82
2023/03/08 00:41:00;;;;;;;0.70;0.70;;;-0.60;99.90;;;;;;4964055;28;20045;-82
2023/03/08 00:43:26;;;;;;;;;;;-1.40;99.90;;;;;;4953638;28;20043;-82
2023/03/08 00:45:52;;;;;;;0.70;0.70;;;-1.10;99.90;;;;;;4936451;28;19930;-82
2023/03/08 00:48:18;;;;;;;0.70;0.70;;;-1.10;99.90;;;;;;4947978;28;20078;-82
2023/03/08 00:50:50;;;;;;;0.80;0.80;;;-1.20;99.90;;;;;;4968072;28;20054;-82
2023/03/08 00:53:16;;;;;;;;;;;-1.20;99.90;;;;;;4963081;28;20131;-82
2023/03/08 00:55:50;;;;;;;0.80;0.80;;;-1.60;99.90;;;;;;4962250;28;19922;-83
2023/03/08 00:58:16;;;;;;;0.70;0.70;;;-1.70;99.90;;;;;;4950728;28;20061;-84
2023/03/08 01:00:43;;;;;;;0.70;0.70;;;-1.30;99.90;;;;;;4950099;28;20035;-83
2023/03/08 01:03:08;;;;;;;0.80;0.80;;;-1.40;99.90;;;;;;4993485;28;20128;-83
2023/03/08 01:05:40;;;;;;;0.75;0.75;;;-1.20;99.90;;;;;;4934891;28;20043;-83
2023/03/08 01:08:06;;;;;;;0.60;0.60;;;-1.50;99.90;;;;;;4949260;28;20047;-83
2023/03/08 01:10:34;;;;;;;0.82;0.82;;;-1.30;99.90;;;;;;4965502;28;20077;-85
2023/03/08 01:13:00;;;;;;;0.77;0.77;;;-1.20;99.90;;;;;;4953578;28;20487;-82
2023/03/08 01:15:25;;;;;;;0.77;0.77;;;-1.30;99.90;;;;;;4937467;28;20072;-83
2023/03/08 01:17:51;;;;;;;0.80;0.80;;;-1.40;99.90;;;;;;4970637;28;20064;-82
2023/03/08 01:20:18;;;;;;;0.70;0.70;;;-1.30;99.90;;;;;;4937297;28;20034;-82
2023/03/08 01:22:44;;;;;;;0.70;0.70;;;-1.40;99.90;;;;;;4965610;28;20566;-81
2023/03/08 01:25:11;;;;;;;0.80;0.80;;;-0.10;99.90;;;;;;5033925;28;20117;-83
2023/03/08 01:27:58;;;;;;;0.70;0.70;;;-1.50;99.90;;;;;;4939627;28;20050;-83
2023/03/08 01:30:24;;;;;;;0.70;0.70;;;-1.50;99.90;;;;;;4951203;28;20438;-83
2023/03/08 01:33:10;;;;;;;0.80;0.80;;;-1.50;99.90;;;;;;4937574;28;20134;-81
2023/03/08 01:35:37;;;;;;;0.73;0.73;;;-1.90;99.90;;;;;;4947238;28;20042;-83
2023/03/08 01:38:22;;;;;;;0.75;0.75;;;-2.10;99.90;;;;;;4966665;28;20108;-82
2023/03/08 01:40:48;;;;;;;0.65;0.65;;;-0.80;99.90;;;;;;4963143;28;20522;-81
2023/03/08 01:43:27;;;;;;;0.80;0.80;;;-1.90;99.90;;;;;;5034829;28;20043;-81
2023/03/08 01:46:14;;;;;;;0.90;0.90;;;-1.70;99.90;;;;;;4967295;28;20043;-83
2023/03/08 01:49:08;;;;;;;0.93;0.93;;;-1.80;99.90;;;;;;4967511;28;20055;-84
2023/03/08 01:51:40;;;;;;;0.80;0.80;;;-1.70;99.90;;;;;;4940410;28;20084;-83
2023/03/08 01:54:19;;;;;;;0.90;0.90;;;-1.70;99.90;;;;;;4943423;28;20046;-84
2023/03/08 01:56:48;;;;;;;0.82;0.82;;;-0.50;99.90;;;;;;4980972;28;20039;-84
2023/03/08 01:59:14;;;;;;;0.90;0.90;;;-2.00;99.90;;;;;;4966361;28;20136;-83
2023/03/08 02:01:40;;;;;;;1.00;1.00;;;-2.00;99.90;;;;;;4936375;28;20125;-82
2023/03/08 02:04:06;;;;;;;0.80;0.80;;;-2.00;99.90;;;;;;4952503;28;20180;-83
2023/03/08 02:06:33;;;;;;;0.90;0.90;;;-2.40;99.90;;;;;;4960483;28;20054;-83
2023/03/08 02:09:04;;;;;;;0.80;0.80;;;-1.90;99.90;;;;;;4977129;28;20043;-82
2023/03/08 02:11:32;;;;;;;0.73;0.73;;;0.50;99.90;;;;;;4946996;28;20039;-84
2023/03/08 02:13:58;;;;;;;0.95;0.95;;;-1.50;99.90;;;;;;4962194;28;20031;-83
2023/03/08 02:16:24;;;;;;;0.90;0.90;;;-1.30;99.90;;;;;;4966241;28;20046;-83
2023/03/08 02:18:58;;;;;;;0.90;0.90;;;-0.10;99.90;;;;;;5035507;28;20051;-83
2023/03/08 02:21:26;;;;;;;0.90;0.90;;;-1.80;99.90;;;;;;4947924;29;20039;-83
2023/03/08 02:23:52;;;;;;;0.80;0.80;;;-2.10;99.90;;;;;;4956558;28;20044;-83
2023/03/08 02:26:18;;;;;;;0.88;0.88;;;-1.10;99.90;;;;;;4948414;28;20082;-83
2023/03/08 02:28:44;;;;;;;0.80;0.80;;;0.00;99.90;;;;;;4931598;28;20043;-83
2023/03/08 02:31:11;;;;;;;0.90;0.90;;;-1.80;99.90;;;;;;4959155;28;20108;-83
2023/03/08 02:33:36;;;;;;;0.90;0.90;;;-1.70;99.90;;;;;;4966207;28;20043;-83
2023/03/08 02:36:05;;;;;;;0.90;0.90;;;0.10;99.90;;;;;;4961541;28;20118;-83
2023/03/08 02:38:30;;;;;;;0.82;0.82;;;-1.80;99.90;;;;;;4976582;28;20572;-83
2023/03/08 02:40:56;;;;;;;0.80;0.80;;;-2.50;99.90;;;;;;4937951;28;20051;-83
2023/03/08 02:43:22;;;;;;;;;;;-1.90;99.90;;;;;;4962881;28;20043;-84
2023/03/08 02:45:47;;;;;;;0.85;0.85;;;-2.30;99.90;;;;;;4950443;28;20000;-83
2023/03/08 02:48:13;;;;;;;;;;;-0.40;99.90;;;;;;4933089;28;20070;-84
2023/03/08 02:50:39;;;;;;;0.70;0.70;;;-1.90;99.90;;;;;;4963778;28;19918;-84
2023/03/08 02:53:05;;;;;;;;;;;-1.90;99.90;;;;;;4951524;28;20039;-84
2023/03/08 02:55:30;;;;;;;0.70;0.70;;;-1.80;99.90;;;;;;4935507;28;19976;-83
2023/03/08 02:57:56;;;;;;;0.70;0.70;;;-2.10;99.90;;;;;;4960884;28;20043;-83
2023/03/08 03:00:22;;;;;;;0.80;0.80;;;-1.80;99.90;;;;;;4947279;28;20041;-84
2023/03/08 03:02:47;;;;;;;0.70;0.70;;;-1.80;99.90;;;;;;4930970;28;20881;-83
2023/03/08 03:05:13;;;;;;;;;;;-0.80;99.90;;;;;;4963661;28;20695;-83
2023/03/08 03:07:41;;;;;;;0.90;0.90;;;-0.70;99.90;;;;;;4968240;28;19925;-84
2023/03/08 03:10:08;;;;;;;0.70;0.70;;;-1.90;99.90;;;;;;4946932;28;20487;-84
2023/03/08 03:12:42;;;;;;;0.80;0.80;;;-1.70;99.90;;;;;;4953416;28;20107;-83
2023/03/08 03:15:10;;;;;;;0.80;0.80;;;-1.70;99.90;;;;;;4941013;28;20492;-84
2023/03/08 03:17:36;;;;;;;0.80;0.80;;;-1.60;99.90;;;;;;4945914;28;20173;-84
2023/03/08 03:20:07;;;;;;;;;;;-1.10;99.90;;;;;;4951472;28;20126;-84
2023/03/08 03:22:33;;;;;;;0.70;0.70;;;-1.60;99.90;;;;;;4946488;28;20383;-85
2023/03/08 03:24:59;;;;;;;;;;;-1.80;99.90;;;;;;4965772;28;20077;-85
2023/03/08 03:27:25;;;;;;;0.80;0.80;;;-1.70;99.90;;;;;;4964578;28;19918;-85
2023/03/08 03:29:51;;;;;;;0.70;0.70;;;-1.70;99.90;;;;;;4964584;28;20090;-85
2023/03/08 03:32:16;;;;;;;0.88;0.88;;;-1.90;99.90;;;;;;4949996;28;20035;-85
2023/03/08 03:34:42;;;;;;;;;;;-1.60;99.90;;;;;;4953844;28;20043;-85
2023/03/08 03:37:08;;;;;;;0.80;0.80;;;-2.00;99.90;;;;;;4967203;28;20394;-85
2023/03/08 03:39:38;;;;;;;1.02;1.02;;;-1.70;99.90;;;;;;4966145;28;20116;-86
2023/03/08 03:42:05;;;;;;;0.80;0.80;;;-1.70;99.90;;;;;;4945839;28;20051;-87
2023/03/08 03:44:31;;;;;;;0.90;0.90;;;-1.60;99.90;;;;;;4958621;28;20074;-87
2023/03/08 03:46:57;;;;;;;0.73;0.73;;;-1.10;99.90;;;;;;4949663;28;20128;-84
2023/03/08 03:49:23;;;;;;;0.70;0.70;;;-1.60;99.90;;;;;;4964103;28;20062;-84
2023/03/08 03:51:48;;;;;;;1.15;1.15;;;-1.10;99.90;;;;;;4966690;28;20522;-85
2023/03/08 03:54:14;;;;;;;0.80;0.80;;;-1.10;99.90;;;;;;4943494;28;20097;-84
2023/03/08 03:56:40;;;;;;;0.90;0.90;;;-0.40;99.90;;;;;;4958246;28;20035;-83
2023/03/08 03:59:05;;;;;;;;;;;-0.10;99.90;;;;;;4964793;28;20035;-83
2023/03/08 04:01:31;;;;;;;0.65;0.65;;;-0.50;99.90;;;;;;4950181;28;19918;-83
2023/03/08 04:03:57;;;;;;;;;;;-1.60;99.90;;;;;;4963830;28;20042;-82
2023/03/08 04:06:43;;;;;;;0.90;0.90;;;-1.70;99.90;;;;;;4949901;28;20294;-84
2023/03/08 04:09:14;;;;;;;0.80;0.80;;;-1.70;99.90;;;;;;4931519;28;20050;-83
2023/03/08 04:11:40;;;;;;;0.80;0.80;;;-2.10;99.90;;;;;;4964032;28;20492;-85
2023/03/08 04:14:06;;;;;;;;;;;-1.50;99.90;;;;;;4966003;28;20103;-85
2023/03/08 04:16:34;;;;;;;0.70;0.70;;;-2.20;99.90;;;;;;4950783;28;19930;-84
2023/03/08 04:19:03;;;;;;;0.80;0.80;;;0.20;99.90;;;;;;4946419;28;20147;-84
2023/03/08 04:21:29;;;;;;;0.75;0.75;;;-2.00;99.90;;;;;;4955316;28;20051;-84
2023/03/08 04:23:56;;;;;;;0.90;0.90;;;-2.00;99.90;;;;;;4947178;28;20049;-83
2023/03/08 04:26:22;;;;;;;0.80;0.80;;;-2.80;99.90;;;;;;4961682;28;20035;-84
2023/03/08 04:28:48;;;;;;;1.00;1.00;;;0.00;99.90;;;;;;4995366;28;20507;-85
2023/03/08 04:31:17;;;;;;;;;;;-2.00;99.90;;;;;;5035530;28;20066;-83
2023/03/08 04:33:44;;;;;;;0.95;0.95;;;-2.00;99.90;;;;;;4941352;28;19922;-84
2023/03/08 04:36:10;;;;;;;0.80;0.80;;;-2.50;99.90;;;;;;4947673;28;20047;-84
2023/03/08 04:38:37;;;;;;;0.90;0.90;;;-2.40;99.90;;;;;;4941097;28;20047;-84
2023/03/08 04:41:12;;;;;;;0.80;0.80;;;-2.00;99.90;;;;;;4949136;28;20411;-84
2023/03/08 04:43:39;;;;;;;0.70;0.70;;;-2.00;99.90;;;;;;4935834;28;20049;-85
2023/03/08 04:46:07;;;;;;;0.88;0.88;;;-2.10;99.90;;;;;;4965508;28;20078;-84
2023/03/08 04:48:36;;;;;;;0.80;0.80;;;-2.00;99.90;;;;;;4951714;28;20538;-84
2023/03/08 04:51:02;;;;;;;;;;;-1.90;99.90;;;;;;4964283;28;20567;-84
2023/03/08 04:53:30;;;;;;;0.70;0.70;;;-1.80;99.90;;;;;;4966115;28;19918;-85
2023/03/08 04:55:58;;;;;;;0.80;0.80;;;-1.90;99.90;;;;;;4932249;28;20306;-85
2023/03/08 04:58:23;;;;;;;0.80;0.80;;;-2.30;99.90;;;;;;4961412;28;20500;-84
2023/03/08 05:00:49;;;;;;;0.70;0.70;;;-2.50;99.90;;;;;;4947363;28;20043;-84
2023/03/08 05:03:15;;;;;;;0.80;0.80;;;-0.30;99.90;;;;;;4947318;28;20535;-84
2023/03/08 05:05:50;;;;;;;0.73;0.73;;;-2.20;99.90;;;;;;4952342;28;20039;-84
2023/03/08 05:08:16;;;;;;;0.90;0.90;;;-2.10;99.90;;;;;;4944735;28;20069;-83
2023/03/08 05:10:52;;;;;;;0.90;0.90;;;-2.10;99.90;;;;;;4964257;28;20039;-83
2023/03/08 05:13:18;;;;;;;0.88;0.88;;;-1.80;99.90;;;;;;5030304;28;20043;-84
2023/03/08 05:15:44;;;;;;;0.77;0.77;;;0.20;99.90;;;;;;4958727;28;20048;-84
2023/03/08 05:18:15;;;;;;;0.90;0.90;;;-2.20;99.90;;;;;;4956898;28;20101;-82
2023/03/08 05:20:41;;;;;;;0.80;0.80;;;-1.90;99.90;;;;;;4944737;28;20039;-84
2023/03/08 05:23:07;;;;;;;0.80;0.80;;;-1.70;99.90;;;;;;4933971;28;20039;-82
2023/03/08 05:25:32;;;;;;;;;;;-1.30;99.90;;;;;;4966397;28;20085;-83
2023/03/08 05:27:59;;;;;;;0.80;0.80;;;-2.20;99.90;;;;;;4958305;28;19918;-83
2023/03/08 05:30:24;;;;;;;0.88;0.88;;;-2.10;99.90;;;;;;4947569;28;20527;-82
2023/03/08 05:32:50;;;;;;;0.90;0.90;;;0.50;99.90;;;;;;4968633;28;20346;-83
2023/03/08 05:35:16;;;;;;;0.80;0.80;;;-1.30;99.90;;;;;;4966743;28;20387;-83
2023/03/08 05:37:42;;;;;;;0.70;0.70;;;-2.20;99.90;;;;;;4950880;28;20035;-82
2023/03/08 05:40:08;;;;;;;;;;;-1.80;99.90;;;;;;4969339;28;20074;-82
2023/03/08 05:42:34;;;;;;;0.80;0.80;;;-1.90;99.90;;;;;;4953033;28;20386;-82
2023/03/08 05:45:00;;;;;;;0.80;0.80;;;-0.20;99.90;;;;;;4949869;28;20353;-82
2023/03/08 05:47:29;;;;;;;0.77;0.77;;;-1.90;99.90;;;;;;4966674;28;20058;-82
2023/03/08 05:49:55;;;;;;;0.90;0.90;;;-2.40;99.90;;;;;;4952414;28;20758;-82
2023/03/08 05:52:21;;;;;;;0.90;0.90;;;-2.00;99.90;;;;;;4933172;28;20054;-83
2023/03/08 05:54:52;;;;;;;0.80;0.80;;;-2.30;99.90;;;;;;4951318;28;20074;-84
2023/03/08 05:57:18;;;;;;;0.70;0.70;;;-2.20;99.90;;;;;;4929555;28;20071;-82
2023/03/08 05:59:44;;;;;;;0.80;0.80;;;-1.90;99.90;;;;;;4932600;28;20046;-84
2023/03/08 06:02:09;;;;;;;0.80;0.80;;;-1.90;99.90;;;;;;4917931;28;20039;-82
2023/03/08 06:04:35;;;;;;;;;;;-2.00;99.90;;;;;;4963432;28;20765;-83
2023/03/08 06:07:00;;;;;;;0.80;0.80;;;-2.30;99.90;;;;;;4953048;28;20012;-84
2023/03/08 06:09:26;;;;;;;;;;;-2.30;99.90;;;;;;4932066;28;20374;-82
2023/03/08 06:11:52;;;;;;;0.80;0.80;;;-2.00;99.90;;;;;;4950688;28;19960;-82
2023/03/08 06:14:17;;;;;;;;;;;-2.30;99.90;;;;;;5034729;28;20053;-83
2023/03/08 06:16:47;;;;;;;0.90;0.90;;;-1.60;99.90;;;;;;4935904;28;19918;-83
2023/03/08 06:19:13;;;;;;;0.85;0.85;;;-2.20;99.90;;;;;;4945429;28;20059;-83
2023/03/08 06:21:39;;;;;;;0.90;0.90;;;-1.80;99.90;;;;;;4933472;28;20039;-83
2023/03/08 06:24:05;;;;;;;0.70;0.70;;;-1.80;99.90;;;;;;4948178;28;20133;-83
2023/03/08 06:26:33;;;;;;;0.90;0.90;;;-1.70;99.90;;;;;;4967181;28;20047;-83
2023/03/08 06:28:58;;;;;;;0.93;0.93;;;-1.70;99.90;;;;;;4965587;28;20040;-84
2023/03/08 06:31:24;;;;;;;0.90;0.90;;;-1.70;99.90;;;;;;4921273;28;20146;-84
2023/03/08 06:33:49;;;;;;;;;;;-0.10;99.90;;;;;;4962259;28;20046;-83
2023/03/08 06:36:20;;;;;;;0.90;0.90;;;-1.80;99.90;;;;;;4945922;28;19922;-83
2023/03/08 06:38:46;;;;;;;0.70;0.70;;;-2.30;99.90;;;;;;4968130;28;20165;-83
2023/03/08 06:41:14;;;;;;;0.80;0.80;;;-2.40;99.90;;;;;;4970762;28;20050;-84
2023/03/08 06:43:40;;;;;;;0.80;0.80;;;-2.10;99.90;;;;;;4966040;28;20499;-83
2023/03/08 06:46:11;;;;;;;0.70;0.70;;;0.80;99.90;;;;;;4967964;28;20050;-84
2023/03/08 06:48:37;;;;;;;0.80;0.80;;;-1.60;99.90;;;;;;4951606;28;20043;-83
2023/03/08 06:51:04;;;;;;;;;;;0.20;99.90;;;;;;4946218;28;20051;-84
2023/03/08 06:53:30;;;;;;;0.90;0.90;;;-0.90;99.90;;;;;;4957732;28;20387;-83
2023/03/08 06:55:56;;;;;;;;;;;-0.10;99.90;;;;;;4964946;28;20306;-84
2023/03/08 06:58:22;;;;;;;0.80;0.80;;;-1.40;99.90;;;;;;4949155;28;19921;-83
2023/03/08 07:00:48;;;;;;;0.70;0.70;;;-1.20;99.90;;;;;;4943542;28;20042;-83
2023/03/08 07:03:14;;;;;;;;;;;-1.20;99.90;;;;;;4948172;28;20043;-83
2023/03/08 07:05:40;;;;;;;0.90;0.90;;;-1.40;99.90;;;;;;4952187;28;19925;-83
2023/03/08 07:08:06;;;;;;;0.70;0.70;;;0.60;99.90;;;;;;4968081;28;20038;-83
2023/03/08 07:10:32;;;;;;;0.80;0.80;;;0.00;99.90;;;;;;4962874;28;20043;-82
2023/03/08 07:12:58;;;;;;;0.90;0.90;;;-1.60;99.90;;;;;;4951779;28;20049;-82
2023/03/08 07:15:25;;;;;;;;;;;-1.10;99.90;;;;;;4968536;28;20073;-83
2023/03/08 07:17:54;;;;;;;0.90;0.90;;;-1.10;99.90;;;;;;4966749;28;20330;-81
2023/03/08 07:20:25;;;;;;;0.82;0.82;;;-1.00;99.90;;;;;;4970173;28;20097;-83
2023/03/08 07:22:51;;;;;;;0.80;0.80;;;-1.00;99.90;;;;;;4966767;28;20054;-82
2023/03/08 07:25:18;;;;;;;;;;;-0.90;99.90;;;;;;4954820;28;20104;-82
2023/03/08 07:27:43;;;;;;;0.95;0.95;;;-0.80;99.90;;;;;;4939618;28;19921;-82
2023/03/08 07:30:12;;;;;;;0.80;0.80;;;-1.10;99.90;;;;;;4952874;28;20110;-83
2023/03/08 07:32:39;;;;;;;0.80;0.80;;;-0.60;99.90;;;;;;4959324;28;20035;-83
2023/03/08 07:35:17;;;;;;;0.90;0.90;;;-0.60;99.90;;;;;;4954356;28;20049;-83
2023/03/08 07:37:44;;;;;;;0.90;0.90;;;-0.50;99.90;;;;;;4949431;28;20383;-82
2023/03/08 07:40:12;;;;;;;0.82;0.82;;;-1.00;99.90;;;;;;4936231;28;20126;-81
2023/03/08 07:42:38;;;;;;;0.80;0.80;;;-0.40;99.90;;;;;;4965693;28;20069;-82
2023/03/08 07:45:05;;;;;;;0.80;0.80;;;-0.90;99.90;;;;;;4958043;28;20039;-83
2023/03/08 07:47:31;;;;;;;0.80;0.80;;;-0.30;99.90;;;;;;5035409;28;20067;-82
2023/03/08 07:49:57;;;;;;;0.80;0.80;;;-0.20;99.90;;;;;;4916627;28;20125;-82
2023/03/08 07:52:27;;;;;;;;;;;-0.10;99.90;;;;;;4970538;28;20085;-82
2023/03/08 07:54:53;;;;;;;0.70;0.70;;;0.00;99.90;;;;;;4973876;28;19966;-82
2023/03/08 07:57:18;;;;;;;0.80;0.80;;;-0.30;99.90;;;;;;4947019;28;20082;-83
2023/03/08 07:59:44;;;;;;;0.90;0.90;;;0.10;99.90;;;;;;4964490;28;20035;-82
2023/03/08 08:02:12;;;;;;;0.70;0.70;;;1.50;99.90;;;;;;4980461;28;20051;-82
2023/03/08 08:04:38;;;;;;;0.75;0.75;;;0.30;99.90;;;;;;4938171;28;20062;-82
2023/03/08 08:07:04;;;;;;;0.70;0.70;;;0.40;99.90;;;;;;4930457;28;20385;-82
2023/03/08 08:09:32;;;;;;;0.73;0.73;;;0.50;99.90;;;;;;4960876;28;20100;-83
2023/03/08 08:11:58;;;;;;;0.70;0.70;;;0.50;99.90;;;;;;5034166;28;20055;-83
2023/03/08 08:14:24;;;;;;;1.00;1.00;;;0.70;99.90;;;;;;4945727;28;20035;-82
2023/03/08 08:16:50;;;;;;;0.68;0.68;;;0.70;99.90;;;;;;4970652;28;20066;-83
2023/03/08 08:19:16;;;;;;;0.80;0.80;;;0.10;99.90;;;;;;4961633;28;20126;-81
2023/03/08 08:21:42;;;;;;;0.70;0.70;;;0.80;99.90;;;;;;5025969;28;20046;-83
2023/03/08 08:24:08;;;;;;;1.02;1.02;;;0.80;99.90;;;;;;4926187;28;20442;-82
2023/03/08 08:26:34;;;;;;;0.75;0.75;;;1.70;99.90;;;;;;4951322;28;20062;-84
2023/03/08 08:28:59;;;;;;;0.73;0.73;;;0.90;99.90;;;;;;4919952;28;20043;-83
2023/03/08 08:31:31;;;;;;;0.80;0.80;;;1.30;99.90;;;;;;4934549;28;20046;-84
2023/03/08 08:33:58;;;;;;;0.70;0.70;;;2.30;99.90;;;;;;4969597;28;20129;-84
2023/03/08 08:36:24;;;;;;;0.80;0.80;;;1.10;99.90;;;;;;4947798;28;20517;-84
2023/03/08 08:38:51;;;;;;;0.73;0.73;;;1.90;99.90;;;;;;4952104;28;20126;-84
2023/03/08 08:41:18;;;;;;;0.70;0.70;;;1.30;99.90;;;;;;4949411;28;20035;-84
2023/03/08 08:43:45;;;;;;;0.80;0.80;;;3.10;99.90;;;;;;4964933;28;20049;-84
2023/03/08 08:46:11;;;;;;;0.80;0.80;;;2.60;99.90;;;;;;4960844;28;20035;-84
2023/03/08 08:48:38;;;;;;;0.70;0.70;;;1.00;99.90;;;;;;4951061;28;20104;-85
2023/03/08 08:51:05;;;;;;;0.80;0.80;;;1.70;99.90;;;;;;4964323;28;20049;-84
2023/03/08 08:53:31;;;;;;;0.63;0.63;;;2.30;99.90;;;;;;4950461;28;20413;-85
2023/03/08 08:55:57;;;;;;;0.80;0.80;;;1.80;99.90;;;;;;4936059;28;20047;-86
2023/03/08 08:58:23;;;;;;;0.80;0.80;;;1.90;99.90;;;;;;4930820;28;20534;-84
2023/03/08 09:00:49;;;;;;;0.70;0.70;;;3.10;99.90;;;;;;4940060;28;20133;-85
2023/03/08 09:03:15;;;;;;;0.70;0.70;;;2.10;99.90;;;;;;4966725;28;20043;-86
2023/03/08 09:05:43;;;;;;;0.70;0.70;;;3.30;99.90;;;;;;4958656;28;20084;-85
2023/03/08 09:08:10;;;;;;;0.70;0.70;;;3.10;99.90;;;;;;4955077;28;20046;-85
2023/03/08 09:10:39;;;;;;;0.68;0.68;;;2.50;99.90;;;;;;4965370;28;20039;-86
2023/03/08 09:13:05;;;;;;;0.60;0.60;;;2.50;99.90;;;;;;4971150;28;20047;-84
2023/03/08 09:15:31;;;;;;;0.60;0.60;;;2.40;99.90;;;;;;4972004;28;20046;-86
2023/03/08 09:17:57;;;;;;;0.70;0.70;;;2.90;99.90;;;;;;4939462;28;20046;-84
2023/03/08 09:20:23;;;;;;;0.63;0.63;;;2.50;99.90;;;;;;4943409;28;20180;-85
2023/03/08 09:22:48;;;;;;;0.70;0.70;;;2.70;99.90;;;;;;4967946;28;20055;-86
2023/03/08 09:25:14;;;;;;;0.70;0.70;;;4.00;99.90;;;;;;4940029;28;20047;-85
2023/03/08 09:27:41;;;;;;;0.68;0.68;;;2.80;99.90;;;;;;4954696;28;20038;-86
2023/03/08 09:30:12;;;;;;;0.70;0.70;;;2.90;99.90;;;;;;4946797;28;20068;-86
2023/03/08 09:32:38;;;;;;;0.80;0.80;;;2.90;99.90;;;;;;4971655;28;20059;-87
2023/03/08 09:35:05;;;;;;;0.60;0.60;;;3.00;99.90;;;;;;4967782;28;20169;-85
2023/03/08 09:37:31;;;;;;;0.70;0.70;;;3.00;99.90;;;;;;4967080;28;20050;-86
2023/03/08 09:39:57;;;;;;;0.68;0.68;;;3.00;99.90;;;;;;4952833;28;20039;-85
2023/03/08 09:42:28;;;;;;;0.70;0.70;;;3.00;99.90;;;;;;4967332;28;20035;-85
2023/03/08 09:45:16;;;;;;;0.60;0.60;;;3.30;99.90;;;;;;4975425;28;20047;-86
2023/03/08 09:47:50;;;;;;;0.70;0.70;;;2.90;99.90;;;;;;4961403;28;20042;-84
2023/03/08 09:50:20;;;;;;;0.80;0.80;;;2.90;99.90;;;;;;4966856;28;20109;-85
2023/03/08 09:52:47;;;;;;;0.60;0.60;;;4.20;99.90;;;;;;4960151;28;20050;-84
2023/03/08 09:55:29;;;;;;;0.70;0.70;;;3.70;99.90;;;;;;4966672;28;20042;-85
2023/03/08 09:58:31;;;;;;;0.63;0.63;;;3.30;99.90;;;;;;4968166;28;20387;-83
2023/03/08 10:01:18;;;;;;;0.50;0.50;;;3.20;99.90;;;;;;4968677;28;20079;-84
2023/03/08 10:04:10;;;;;;;0.60;0.60;;;3.30;99.90;;;;;;4957326;28;20139;-86
2023/03/08 10:06:53;;;;;;;0.63;0.63;;;3.40;99.90;;;;;;4972953;28;20050;-85
2023/03/08 10:09:24;;;;;;;0.75;0.75;;;3.40;99.90;;;;;;4974570;28;20035;-84
2023/03/08 10:12:10;;;;;;;0.50;0.50;;;3.50;99.90;;;;;;4969211;28;20058;-85
2023/03/08 10:14:41;;;;;;;0.80;0.80;;;3.30;99.90;;;;;;4972678;28;20039;-84
2023/03/08 10:17:21;;;;;;;0.60;0.60;;;3.40;99.90;;;;;;4975349;28;20043;-85
2023/03/08 10:20:00;;;;;;;0.77;0.77;;;3.70;99.90;;;;;;4972369;28;20196;-84
2023/03/08 10:22:33;;;;;;;0.80;0.80;;;3.60;99.90;;;;;;4983292;28;20038;-85
2023/03/08 10:25:32;;;;;;;0.60;0.60;;;3.70;99.90;;;;;;4959559;28;20610;-85
2023/03/08 10:28:01;;;;;;;0.50;0.50;;;4.30;99.90;;;;;;4951375;28;20051;-85
2023/03/08 10:30:33;;;;;;;0.60;0.60;;;3.90;99.90;;;;;;4993560;28;20039;-85
2023/03/08 10:33:11;;;;;;;0.77;0.77;;;4.20;99.90;;;;;;4969513;28;20043;-85
2023/03/08 10:35:57;;;;;;;0.60;0.60;;;3.80;99.90;;;;;;4943726;28;20797;-85
2023/03/08 10:38:26;;;;;;;0.73;0.73;;;4.10;99.90;;;;;;4960302;28;20053;-85
2023/03/08 10:41:16;;;;;;;0.57;0.57;;;3.90;99.90;;;;;;4952625;28;20507;-84
2023/03/08 10:43:48;;;;;;;0.52;0.52;;;4.10;99.90;;;;;;4943314;29;20043;-84
2023/03/08 10:46:19;;;;;;;0.50;0.50;;;4.30;99.90;;;;;;4954304;28;20075;-84
2023/03/08 10:48:46;;;;;;;0.52;0.52;;;4.60;99.90;;;;;;4955423;28;20054;-85
2023/03/08 10:51:24;;;;;;;0.60;0.60;;;4.60;99.90;;;;;;4926776;28;20428;-85
2023/03/08 10:53:54;;;;;;;0.60;0.60;;;4.80;99.90;;;;;;4952320;28;20133;-85
2023/03/08 10:56:25;;;;;;;0.55;0.55;;;5.40;99.90;;;;;;4954921;28;20051;-86
2023/03/08 10:58:55;;;;;;;0.70;0.70;;;5.00;99.90;;;;;;4941804;28;20075;-85
2023/03/08 11:01:33;;;;;;;0.60;0.60;;;5.20;99.90;;;;;;4948117;28;20034;-85
2023/03/08 11:04:15;;;;;;;0.70;0.70;;;4.90;99.90;;;;;;4958178;28;20039;-87
2023/03/08 11:06:42;;;;;;;1.17;1.17;;;5.00;99.90;;;;;;4961170;28;20053;-83
2023/03/08 11:09:26;;;;;;;0.50;0.50;;;4.90;99.90;;;;;;4931446;29;20778;-84
2023/03/08 11:11:55;;;;;;;0.60;0.60;;;5.20;99.90;;;;;;4963669;28;20472;-86
2023/03/08 11:14:23;;;;;;;0.50;0.50;;;5.00;99.90;;;;;;4967657;28;20041;-86
2023/03/08 11:16:55;;;;;;;0.50;0.50;;;5.20;99.90;;;;;;4951587;28;20073;-86
2023/03/08 11:19:43;;;;;;;0.50;0.50;;;5.20;99.90;;;;;;4955199;28;20046;-85
2023/03/08 11:22:33;;;;;;;0.50;0.50;;;5.20;99.90;;;;;;4973007;28;20051;-84
2023/03/08 11:25:13;;;;;;;0.65;0.65;;;5.20;99.90;;;;;;4957512;28;20058;-86
2023/03/08 11:28:04;;;;;;;0.55;0.55;;;5.20;99.90;;;;;;4967490;28;20116;-85
2023/03/08 11:30:39;;;;;;;0.60;0.60;;;5.30;99.90;;;;;;4972127;28;20034;-84
2023/03/08 11:33:31;;;;;;;0.57;0.57;;;5.40;99.90;;;;;;4968547;28;20476;-84
2023/03/08 11:36:25;;;;;;;0.43;0.43;;;5.30;99.90;;;;;;4965954;28;20035;-84
2023/03/08 11:39:01;;;;;;;0.47;0.47;;;5.40;99.90;;;;;;4969769;28;20046;-84
2023/03/08 11:42:08;;;;;;;0.50;0.50;;;5.60;99.90;;;;;;4945768;28;20034;-85
2023/03/08 11:45:00;;;;;;;0.57;0.57;;;5.60;99.90;;;;;;4950922;28;20180;-84
2023/03/08 11:47:29;;;;;;;0.60;0.60;;;5.70;99.90;;;;;;4965457;28;20046;-84
2023/03/08 11:50:18;;;;;;;0.55;0.55;;;5.80;99.90;;;;;;4968404;28;20047;-84
2023/03/08 11:53:00;;;;;;;0.60;0.60;;;5.80;99.90;;;;;;4957242;28;20047;-85
2023/03/08 11:55:53;;;;;;;0.50;0.50;;;5.90;99.90;;;;;;4967281;28;20500;-85
2023/03/08 11:58:36;;;;;;;0.50;0.50;;;5.90;99.90;;;;;;4955157;28;20369;-84
2023/03/08 12:01:10;;;;;;;0.40;0.40;;;5.90;99.90;;;;;;4960511;28;20051;-86
2023/03/08 12:03:46;;;;;;;0.50;0.50;;;6.00;99.90;;;;;;4971536;28;20068;-84
2023/03/08 12:06:15;;;;;;;;;;;6.00;99.90;;;;;;4973362;28;20070;-84
2023/03/08 12:08:50;;;;;;;0.50;0.50;;;6.00;99.90;;;;;;4962890;28;19922;-84
2023/03/08 12:11:45;;;;;;;0.57;0.57;;;6.10;99.90;;;;;;4964168;28;20035;-83
2023/03/08 12:14:25;;;;;;;6.38;1.13;;;6.20;99.90;;;;;;4973189;28;20069;-84
2023/03/08 12:17:06;;;;;;;0.40;0.40;;;6.30;99.90;;;;;;4977976;28;20077;-83
2023/03/08 12:19:43;;;;;;;0.50;0.50;;;6.30;99.90;;;;;;4955806;28;20114;-84
2023/03/08 12:22:27;;;;;;;0.50;0.50;;;6.30;99.90;;;;;;4970112;28;20035;-85
2023/03/08 12:25:20;;;;;;;0.50;0.50;;;6.30;99.90;;;;;;4971796;28;20043;-83
2023/03/08 12:28:00;;;;;;;0.60;0.60;;;6.30;99.90;;;;;;4970441;28;20030;-84
2023/03/08 12:30:38;;;;;;;0.50;0.50;;;6.40;99.90;;;;;;4953807;28;20088;-84
2023/03/08 12:33:08;;;;;;;0.32;0.32;;;6.40;99.90;;;;;;4964050;28;20480;-84
2023/03/08 12:35:36;;;;;;;0.50;0.50;;;6.20;99.90;;;;;;4979306;28;20088;-84
2023/03/08 12:38:06;;;;;;;0.47;0.47;;;6.10;99.90;;;;;;4968533;28;20046;-84
2023/03/08 12:40:45;;;;;;;0.40;0.40;;;5.90;99.90;;;;;;4965050;28;20076;-84
2023/03/08 12:43:20;;;;;;;0.50;0.50;;;5.80;99.90;;;;;;4950002;28;20096;-83
2023/03/08 12:46:08;;;;;;;0.52;0.52;;;5.70;99.90;;;;;;4975803;28;20043;-83
2023/03/08 12:48:36;;;;;;;0.70;0.70;;;5.80;99.90;;;;;;4977484;28;20055;-83
2023/03/08 12:51:11;;;;;;;0.85;0.85;;;6.00;99.90;;;;;;4969912;28;20118;-84
2023/03/08 12:53:51;;;;;;;0.40;0.40;;;6.00;99.90;;;;;;4977130;28;20511;-84
2023/03/08 12:56:36;;;;;;;0.50;0.50;;;6.20;99.90;;;;;;4970727;28;20605;-84
2023/03/08 12:59:22;;;;;;;0.55;0.55;;;6.20;99.90;;;;;;4962854;28;20043;-84
2023/03/08 13:01:56;;;;;;;0.40;0.40;;;6.30;99.90;;;;;;4966709;28;20048;-85
2023/03/08 13:04:32;;;;;;;0.50;0.50;;;6.20;99.90;;;;;;4942003;28;20054;-84
2023/03/08 13:07:19;;;;;;;0.60;0.60;;;6.20;99.90;;;;;;4963771;28;20043;-84
2023/03/08 13:10:07;;;;;;;0.50;0.50;;;6.00;99.90;;;;;;4955237;28;20034;-83
2023/03/08 13:12:49;;;;;;;0.30;0.30;;;6.00;99.90;;;;;;4954895;28;20058;-85
2023/03/08 13:15:16;;;;;;;0.40;0.40;;;6.00;99.90;;;;;;4969900;28;20050;-85